sensor_id;sensor_type;location;lat;lon;timestamp;pressure;altitude;pressure_sealevel;temperature;humidity
50394;BME280;36308;46.312;25.288;2023-04-05T00:00:29;95664.66;;;2.34;71.66
50394;BME280;36308;46.312;25.288;2023-04-05T00:02:57;95661.00;;;2.35;71.80
50394;BME280;36308;46.312;25.288;2023-04-05T00:05:24;95661.81;;;2.35;71.45
50394;BME280;36308;46.312;25.288;2023-04-05T00:07:59;95662.22;;;2.32;71.42
50394;BME280;36308;46.312;25.288;2023-04-05T00:10:30;95662.59;;;2.36;71.30
50394;BME280;36308;46.312;25.288;2023-04-05T00:12:56;95665.06;;;2.37;71.64
50394;BME280;36308;46.312;25.288;2023-04-05T00:15:22;95658.34;;;2.35;70.85
50394;BME280;36308;46.312;25.288;2023-04-05T00:17:47;95665.47;;;2.34;71.19
50394;BME280;36308;46.312;25.288;2023-04-05T00:20:13;95664.47;;;2.35;71.49
50394;BME280;36308;46.312;25.288;2023-04-05T00:22:40;95662.59;;;2.36;71.54
50394;BME280;36308;46.312;25.288;2023-04-05T00:25:08;95666.31;;;2.35;71.42
50394;BME280;36308;46.312;25.288;2023-04-05T00:27:33;95661.41;;;2.32;71.50
50394;BME280;36308;46.312;25.288;2023-04-05T00:29:59;95667.38;;;2.27;71.04
50394;BME280;36308;46.312;25.288;2023-04-05T00:32:25;95660.66;;;2.25;70.88
50394;BME280;36308;46.312;25.288;2023-04-05T00:34:50;95658.22;;;2.23;71.61
50394;BME280;36308;46.312;25.288;2023-04-05T00:37:16;95656.56;;;2.22;70.97
50394;BME280;36308;46.312;25.288;2023-04-05T00:39:41;95661.88;;;2.22;71.32
50394;BME280;36308;46.312;25.288;2023-04-05T00:42:07;95664.53;;;2.22;71.44
50394;BME280;36308;46.312;25.288;2023-04-05T00:44:34;95660.28;;;2.21;71.72
50394;BME280;36308;46.312;25.288;2023-04-05T00:47:03;95658.63;;;2.20;71.68
50394;BME280;36308;46.312;25.288;2023-04-05T00:49:31;95647.22;;;2.19;71.89
50394;BME280;36308;46.312;25.288;2023-04-05T00:51:57;95646.41;;;2.19;72.34
50394;BME280;36308;46.312;25.288;2023-04-05T00:54:24;95646.41;;;2.19;71.90
50394;BME280;36308;46.312;25.288;2023-04-05T00:56:51;95646.41;;;2.19;71.84
50394;BME280;36308;46.312;25.288;2023-04-05T00:59:18;95645.59;;;2.18;71.98
50394;BME280;36308;46.312;25.288;2023-04-05T01:01:44;95640.06;;;2.20;72.48
50394;BME280;36308;46.312;25.288;2023-04-05T01:04:22;95652.31;;;2.21;72.63
50394;BME280;36308;46.312;25.288;2023-04-05T01:09:52;95659.81;;;2.24;71.86
50394;BME280;36308;46.312;25.288;2023-04-05T01:12:22;95653.31;;;2.27;72.37
50394;BME280;36308;46.312;25.288;2023-04-05T01:14:49;95668.19;;;2.28;72.18
50394;BME280;36308;46.312;25.288;2023-04-05T01:17:17;95663.69;;;2.28;72.67
50394;BME280;36308;46.312;25.288;2023-04-05T01:20:02;95668.19;;;2.28;72.05
50394;BME280;36308;46.312;25.288;2023-04-05T01:29:03;95665.53;;;2.28;72.03
50394;BME280;36308;46.312;25.288;2023-04-05T01:31:51;95659.41;;;2.27;72.35
50394;BME280;36308;46.312;25.288;2023-04-05T01:34:40;95668.38;;;2.26;71.49
50394;BME280;36308;46.312;25.288;2023-04-05T01:37:17;95664.91;;;2.26;71.42
50394;BME280;36308;46.312;25.288;2023-04-05T01:39:44;95680.63;;;2.27;71.89
50394;BME280;36308;46.312;25.288;2023-04-05T01:42:13;95660.22;;;2.28;71.31
50394;BME280;36308;46.312;25.288;2023-04-05T01:44:38;95659.19;;;2.29;71.68
50394;BME280;36308;46.312;25.288;2023-04-05T01:47:04;95652.06;;;2.29;71.88
50394;BME280;36308;46.312;25.288;2023-04-05T01:49:31;95652.84;;;2.30;71.65
50394;BME280;36308;46.312;25.288;2023-04-05T01:51:57;95653.66;;;2.30;71.49
50394;BME280;36308;46.312;25.288;2023-04-05T01:54:22;95653.66;;;2.30;70.68
50394;BME280;36308;46.312;25.288;2023-04-05T01:56:48;95656.91;;;2.32;70.54
50394;BME280;36308;46.312;25.288;2023-04-05T01:59:13;95646.75;;;2.29;70.87
50394;BME280;36308;46.312;25.288;2023-04-05T02:01:39;95648.34;;;2.30;70.89
50394;BME280;36308;46.312;25.288;2023-04-05T02:04:04;95645.72;;;2.30;70.38
50394;BME280;36308;46.312;25.288;2023-04-05T02:06:30;95633.47;;;2.29;71.08
50394;BME280;36308;46.312;25.288;2023-04-05T02:08:56;95624.31;;;2.25;71.00
50394;BME280;36308;46.312;25.288;2023-04-05T02:11:22;95635.69;;;2.32;70.15
50394;BME280;36308;46.312;25.288;2023-04-05T02:13:47;95636.13;;;2.29;70.66
50394;BME280;36308;46.312;25.288;2023-04-05T02:16:12;95644.69;;;2.31;69.93
50394;BME280;36308;46.312;25.288;2023-04-05T02:18:38;95642.03;;;2.31;69.79
50394;BME280;36308;46.312;25.288;2023-04-05T02:21:06;95644.69;;;2.31;69.95
50394;BME280;36308;46.312;25.288;2023-04-05T02:23:32;95642.03;;;2.31;70.56
50394;BME280;36308;46.312;25.288;2023-04-05T02:25:59;95645.72;;;2.30;70.30
50394;BME280;36308;46.312;25.288;2023-04-05T02:28:24;95648.34;;;2.30;70.21
50394;BME280;36308;46.312;25.288;2023-04-05T02:30:50;95643.88;;;2.31;70.05
50394;BME280;36308;46.312;25.288;2023-04-05T02:33:16;95654.50;;;2.31;69.90
50394;BME280;36308;46.312;25.288;2023-04-05T02:35:41;95648.34;;;2.30;70.04
50394;BME280;36308;46.312;25.288;2023-04-05T02:38:07;95641.22;;;2.31;69.69
50394;BME280;36308;46.312;25.288;2023-04-05T02:40:33;95653.44;;;2.32;70.51
50394;BME280;36308;46.312;25.288;2023-04-05T02:42:59;95653.66;;;2.30;69.93
50394;BME280;36308;46.312;25.288;2023-04-05T02:45:26;95656.31;;;2.30;70.32
50394;BME280;36308;46.312;25.288;2023-04-05T02:47:52;95649.59;;;2.28;70.37
50394;BME280;36308;46.312;25.288;2023-04-05T02:50:18;95650.00;;;2.31;69.89
50394;BME280;36308;46.312;25.288;2023-04-05T02:52:50;95651.59;;;2.32;70.48
50394;BME280;36308;46.312;25.288;2023-04-05T02:55:16;95650.00;;;2.31;70.29
50394;BME280;36308;46.312;25.288;2023-04-05T02:57:42;95643.06;;;2.30;69.57
50394;BME280;36308;46.312;25.288;2023-04-05T03:00:08;95640.63;;;2.29;69.56
50394;BME280;36308;46.312;25.288;2023-04-05T03:02:36;95646.31;;;2.32;70.60
50394;BME280;36308;46.312;25.288;2023-04-05T03:05:05;95650.00;;;2.31;69.73
50394;BME280;36308;46.312;25.288;2023-04-05T03:07:32;95646.31;;;2.32;70.59
50394;BME280;36308;46.312;25.288;2023-04-05T03:09:57;95644.69;;;2.31;70.39
50394;BME280;36308;46.312;25.288;2023-04-05T03:12:23;95645.72;;;2.30;69.98
50394;BME280;36308;46.312;25.288;2023-04-05T03:14:49;95638.59;;;2.31;70.74
50394;BME280;36308;46.312;25.288;2023-04-05T03:17:15;95639.38;;;2.31;70.63
50394;BME280;36308;46.312;25.288;2023-04-05T03:19:40;95641.22;;;2.31;70.26
50394;BME280;36308;46.312;25.288;2023-04-05T03:22:07;95638.34;;;2.32;69.87
50394;BME280;36308;46.312;25.288;2023-04-05T03:24:33;95646.31;;;2.32;69.82
50394;BME280;36308;46.312;25.288;2023-04-05T03:27:02;95639.19;;;2.33;70.07
50394;BME280;36308;46.312;25.288;2023-04-05T03:29:30;95639.38;;;2.31;69.82
50394;BME280;36308;46.312;25.288;2023-04-05T03:31:57;95647.13;;;2.33;70.56
50394;BME280;36308;46.312;25.288;2023-04-05T03:34:23;95645.28;;;2.33;69.80
50394;BME280;36308;46.312;25.288;2023-04-05T03:36:55;95635.09;;;2.30;70.56
50394;BME280;36308;46.312;25.288;2023-04-05T03:39:21;95637.75;;;2.30;69.65
50394;BME280;36308;46.312;25.288;2023-04-05T03:41:46;95641.44;;;2.29;69.88
50394;BME280;36308;46.312;25.288;2023-04-05T03:44:12;95640.84;;;2.27;69.64
50394;BME280;36308;46.312;25.288;2023-04-05T03:46:37;95636.56;;;2.26;69.63
50394;BME280;36308;46.312;25.288;2023-04-05T03:49:03;95639.66;;;2.23;70.05
50394;BME280;36308;46.312;25.288;2023-04-05T03:51:29;95638.59;;;2.24;70.11
50394;BME280;36308;46.312;25.288;2023-04-05T03:53:55;95635.34;;;2.22;70.10
50394;BME280;36308;46.312;25.288;2023-04-05T03:56:20;95634.34;;;2.23;69.94
50394;BME280;36308;46.312;25.288;2023-04-05T03:59:05;95631.69;;;2.23;70.57
50394;BME280;36308;46.312;25.288;2023-04-05T04:01:31;95635.94;;;2.24;70.52
50394;BME280;36308;46.312;25.288;2023-04-05T04:03:56;95639.44;;;2.25;70.27
50394;BME280;36308;46.312;25.288;2023-04-05T04:06:24;95639.44;;;2.25;70.26
50394;BME280;36308;46.312;25.288;2023-04-05T04:08:51;95637.59;;;2.25;70.17
50394;BME280;36308;46.312;25.288;2023-04-05T04:11:16;95645.56;;;2.25;70.62
50394;BME280;36308;46.312;25.288;2023-04-05T04:13:42;95642.91;;;2.25;70.46
50394;BME280;36308;46.312;25.288;2023-04-05T04:16:07;95640.25;;;2.25;70.29
50394;BME280;36308;46.312;25.288;2023-04-05T04:18:33;95645.56;;;2.25;70.76
50394;BME280;36308;46.312;25.288;2023-04-05T04:21:01;95643.09;;;2.23;70.11
50394;BME280;36308;46.312;25.288;2023-04-05T04:23:32;95639.06;;;2.21;69.66
50394;BME280;36308;46.312;25.288;2023-04-05T04:25:59;95641.69;;;2.21;70.08
50394;BME280;36308;46.312;25.288;2023-04-05T04:28:26;95644.34;;;2.21;70.22
50394;BME280;36308;46.312;25.288;2023-04-05T04:30:52;95647.00;;;2.21;69.49
50394;BME280;36308;46.312;25.288;2023-04-05T04:33:17;95650.47;;;2.21;70.41
50394;BME280;36308;46.312;25.288;2023-04-05T04:35:44;95641.91;;;2.19;70.04
50394;BME280;36308;46.312;25.288;2023-04-05T04:38:11;95651.28;;;2.22;70.43
50394;BME280;36308;46.312;25.288;2023-04-05T04:40:43;95661.88;;;2.22;70.21
50394;BME280;36308;46.312;25.288;2023-04-05T04:43:13;95647.59;;;2.23;70.30
50394;BME280;36308;46.312;25.288;2023-04-05T04:45:44;95652.69;;;2.25;70.06
50394;BME280;36308;46.312;25.288;2023-04-05T04:48:13;95654.31;;;2.26;69.71
50394;BME280;36308;46.312;25.288;2023-04-05T04:50:44;95662.66;;;2.29;69.74
50394;BME280;36308;46.312;25.288;2023-04-05T04:53:10;95660.00;;;2.29;69.76
50394;BME280;36308;46.312;25.288;2023-04-05T04:55:39;95658.97;;;2.30;70.22
50394;BME280;36308;46.312;25.288;2023-04-05T04:58:08;95662.47;;;2.31;69.44
50394;BME280;36308;46.312;25.288;2023-04-05T05:00:40;95657.50;;;2.34;69.60
50394;BME280;36308;46.312;25.288;2023-04-05T05:03:06;95663.41;;;2.36;69.96
50394;BME280;36308;46.312;25.288;2023-04-05T05:05:33;95653.84;;;2.35;69.89
50394;BME280;36308;46.312;25.288;2023-04-05T05:07:58;95656.06;;;2.38;69.06
50394;BME280;36308;46.312;25.288;2023-04-05T05:10:24;95651.34;;;2.40;69.64
50394;BME280;36308;46.312;25.288;2023-04-05T05:12:50;95661.34;;;2.45;69.27
50394;BME280;36308;46.312;25.288;2023-04-05T05:15:16;95646.81;;;2.48;69.42
50394;BME280;36308;46.312;25.288;2023-04-05T05:17:41;95651.09;;;2.49;68.88
50394;BME280;36308;46.312;25.288;2023-04-05T05:20:09;95652.72;;;2.50;69.14
50394;BME280;36308;46.312;25.288;2023-04-05T05:22:38;95654.34;;;2.51;68.90
50394;BME280;36308;46.312;25.288;2023-04-05T05:25:05;95653.91;;;2.54;69.14
50394;BME280;36308;46.312;25.288;2023-04-05T05:27:31;95659.81;;;2.56;69.23
50394;BME280;36308;46.312;25.288;2023-04-05T05:29:58;95667.94;;;2.61;69.47
50394;BME280;36308;46.312;25.288;2023-04-05T05:32:24;95664.84;;;2.64;69.89
50394;BME280;36308;46.312;25.288;2023-04-05T05:34:49;95664.84;;;2.64;68.92
50394;BME280;36308;46.312;25.288;2023-04-05T05:37:15;95661.59;;;2.62;69.30
50394;BME280;36308;46.312;25.288;2023-04-05T05:39:41;95662.22;;;2.64;69.09
50394;BME280;36308;46.312;25.288;2023-04-05T05:42:09;95667.66;;;2.69;69.72
50394;BME280;36308;46.312;25.288;2023-04-05T05:44:35;95669.91;;;2.72;68.71
50394;BME280;36308;46.312;25.288;2023-04-05T05:47:01;95673.16;;;2.74;68.68
50394;BME280;36308;46.312;25.288;2023-04-05T05:49:27;95662.34;;;2.69;68.79
50394;BME280;36308;46.312;25.288;2023-04-05T05:51:52;95671.69;;;2.78;68.65
50394;BME280;36308;46.312;25.288;2023-04-05T05:54:18;95670.66;;;2.79;68.55
50394;BME280;36308;46.312;25.288;2023-04-05T05:56:44;95667.78;;;2.81;69.02
50394;BME280;36308;46.312;25.288;2023-04-05T05:59:10;95667.31;;;2.84;68.23
50394;BME280;36308;46.312;25.288;2023-04-05T06:01:36;95664.69;;;2.84;68.22
50394;BME280;36308;46.312;25.288;2023-04-05T06:04:05;95674.06;;;2.87;67.94
50394;BME280;36308;46.312;25.288;2023-04-05T06:06:30;95675.69;;;2.88;68.55
50394;BME280;36308;46.312;25.288;2023-04-05T06:08:58;95670.38;;;2.88;67.88
50394;BME280;36308;46.312;25.288;2023-04-05T06:11:23;95668.31;;;2.90;67.99
50394;BME280;36308;46.312;25.288;2023-04-05T06:13:51;95667.88;;;2.93;68.07
50394;BME280;36308;46.312;25.288;2023-04-05T06:16:17;95668.09;;;2.91;68.32
50394;BME280;36308;46.312;25.288;2023-04-05T06:18:43;95666.63;;;2.95;67.68
50394;BME280;36308;46.312;25.288;2023-04-05T06:21:09;95668.84;;;2.98;67.75
50394;BME280;36308;46.312;25.288;2023-04-05T06:23:34;95669.88;;;2.97;67.76
50394;BME280;36308;46.312;25.288;2023-04-05T06:26:00;95678.22;;;3.01;67.72
50394;BME280;36308;46.312;25.288;2023-04-05T06:28:26;95677.56;;;3.06;67.90
50394;BME280;36308;46.312;25.288;2023-04-05T06:30:52;95677.50;;;3.12;67.67
50394;BME280;36308;46.312;25.288;2023-04-05T06:33:18;95682.75;;;3.19;67.88
50394;BME280;36308;46.312;25.288;2023-04-05T06:35:45;95683.06;;;3.29;68.00
50394;BME280;36308;46.312;25.288;2023-04-05T06:38:10;95688.88;;;3.38;68.64
50394;BME280;36308;46.312;25.288;2023-04-05T06:40:36;95684.91;;;3.47;68.19
50394;BME280;36308;46.312;25.288;2023-04-05T06:43:01;95683.19;;;3.53;67.36
50394;BME280;36308;46.312;25.288;2023-04-05T06:45:27;95684.03;;;3.53;66.92
50394;BME280;36308;46.312;25.288;2023-04-05T06:47:52;95685.66;;;3.54;65.97
50394;BME280;36308;46.312;25.288;2023-04-05T06:50:18;95694.22;;;3.56;65.88
50394;BME280;36308;46.312;25.288;2023-04-05T06:52:43;95692.94;;;3.59;65.89
50394;BME280;36308;46.312;25.288;2023-04-05T06:55:09;95697.63;;;3.63;66.00
50394;BME280;36308;46.312;25.288;2023-04-05T06:57:35;95696.13;;;3.68;66.11
50394;BME280;36308;46.312;25.288;2023-04-05T07:00:00;95697.31;;;3.72;65.33
50394;BME280;36308;46.312;25.288;2023-04-05T07:02:26;95693.19;;;3.76;65.34
50394;BME280;36308;46.312;25.288;2023-04-05T07:04:51;95697.63;;;3.82;65.81
50394;BME280;36308;46.312;25.288;2023-04-05T07:07:17;95693.22;;;3.88;65.14
50394;BME280;36308;46.312;25.288;2023-04-05T07:09:43;95699.50;;;3.93;66.00
50394;BME280;36308;46.312;25.288;2023-04-05T07:12:08;95707.63;;;3.98;65.81
50394;BME280;36308;46.312;25.288;2023-04-05T07:14:37;95703.25;;;4.04;65.45
50394;BME280;36308;46.312;25.288;2023-04-05T07:17:05;95707.47;;;4.12;64.84
50394;BME280;36308;46.312;25.288;2023-04-05T07:19:31;95696.34;;;4.15;64.70
50394;BME280;36308;46.312;25.288;2023-04-05T07:21:58;95705.06;;;4.22;64.72
50394;BME280;36308;46.312;25.288;2023-04-05T07:24:24;95708.09;;;4.25;63.56
50394;BME280;36308;46.312;25.288;2023-04-05T07:26:50;95711.09;;;4.29;63.63
50394;BME280;36308;46.312;25.288;2023-04-05T07:29:16;95707.41;;;4.30;63.78
50394;BME280;36308;46.312;25.288;2023-04-05T07:31:42;95715.53;;;4.35;63.15
50394;BME280;36308;46.312;25.288;2023-04-05T07:34:07;95710.78;;;4.37;63.01
50394;BME280;36308;46.312;25.288;2023-04-05T07:36:33;95721.00;;;4.40;62.78
50394;BME280;36308;46.312;25.288;2023-04-05T07:38:59;95722.97;;;4.45;62.46
50394;BME280;36308;46.312;25.288;2023-04-05T07:41:26;95720.44;;;4.50;62.60
50394;BME280;36308;46.312;25.288;2023-04-05T07:43:52;95718.72;;;4.56;62.78
50394;BME280;36308;46.312;25.288;2023-04-05T07:46:18;95722.91;;;4.63;62.30
50394;BME280;36308;46.312;25.288;2023-04-05T07:48:45;95723.88;;;4.69;61.77
50394;BME280;36308;46.312;25.288;2023-04-05T07:51:12;95715.56;;;4.77;62.01
50394;BME280;36308;46.312;25.288;2023-04-05T07:53:38;95715.09;;;4.80;61.97
50394;BME280;36308;46.312;25.288;2023-04-05T07:56:06;95727.59;;;4.92;61.62
50394;BME280;36308;46.312;25.288;2023-04-05T07:58:32;95725.06;;;4.97;61.65
50394;BME280;36308;46.312;25.288;2023-04-05T08:01:02;95716.75;;;5.05;61.38
50394;BME280;36308;46.312;25.288;2023-04-05T08:03:29;95718.00;;;5.14;61.19
50394;BME280;36308;46.312;25.288;2023-04-05T08:05:55;95726.50;;;5.23;61.20
50394;BME280;36308;46.312;25.288;2023-04-05T08:08:21;95725.31;;;5.31;60.84
50394;BME280;36308;46.312;25.288;2023-04-05T08:10:47;95718.63;;;5.40;61.19
50394;BME280;36308;46.312;25.288;2023-04-05T08:13:12;95724.19;;;5.50;60.55
50394;BME280;36308;46.312;25.288;2023-04-05T08:15:39;95723.00;;;5.58;60.31
50394;BME280;36308;46.312;25.288;2023-04-05T08:18:05;95722.19;;;5.69;59.89
50394;BME280;36308;46.312;25.288;2023-04-05T08:20:30;95732.25;;;5.79;58.86
50394;BME280;36308;46.312;25.288;2023-04-05T08:22:56;95728.06;;;5.83;58.03
50394;BME280;36308;46.312;25.288;2023-04-05T08:25:21;95731.41;;;5.90;58.03
50394;BME280;36308;46.312;25.288;2023-04-05T08:27:47;95736.88;;;5.95;58.02
50394;BME280;36308;46.312;25.288;2023-04-05T08:30:12;95723.16;;;6.03;57.70
50394;BME280;36308;46.312;25.288;2023-04-05T08:32:38;95739.06;;;6.10;57.14
50394;BME280;36308;46.312;25.288;2023-04-05T08:35:03;95726.72;;;6.21;56.48
50394;BME280;36308;46.312;25.288;2023-04-05T08:37:33;95732.16;;;6.26;56.31
50394;BME280;36308;46.312;25.288;2023-04-05T08:39:59;95731.22;;;6.32;55.80
50394;BME280;36308;46.312;25.288;2023-04-05T08:42:45;95730.75;;;6.35;55.99
50394;BME280;36308;46.312;25.288;2023-04-05T08:45:16;95731.91;;;6.39;56.17
50394;BME280;36308;46.312;25.288;2023-04-05T08:47:44;95731.97;;;6.44;55.80
50394;BME280;36308;46.312;25.288;2023-04-05T08:50:10;95733.69;;;6.51;55.51
50394;BME280;36308;46.312;25.288;2023-04-05T08:52:40;95733.22;;;6.54;55.59
50394;BME280;36308;46.312;25.288;2023-04-05T08:55:07;95730.63;;;6.59;55.98
50394;BME280;36308;46.312;25.288;2023-04-05T08:57:36;95734.88;;;6.72;56.26
50394;BME280;36308;46.312;25.288;2023-04-05T09:00:07;95733.19;;;6.82;55.82
50394;BME280;36308;46.312;25.288;2023-04-05T09:02:33;95736.38;;;6.96;55.35
50394;BME280;36308;46.312;25.288;2023-04-05T09:05:01;95734.66;;;7.07;55.04
50394;BME280;36308;46.312;25.288;2023-04-05T09:07:28;95733.47;;;7.15;54.77
50394;BME280;36308;46.312;25.288;2023-04-05T09:09:56;95741.53;;;7.20;54.73
50394;BME280;36308;46.312;25.288;2023-04-05T09:12:24;95736.53;;;7.23;54.06
50394;BME280;36308;46.312;25.288;2023-04-05T09:14:51;95740.34;;;7.27;53.91
50394;BME280;36308;46.312;25.288;2023-04-05T09:17:17;95745.78;;;7.33;53.65
50394;BME280;36308;46.312;25.288;2023-04-05T09:19:45;95747.72;;;7.37;53.23
50394;BME280;36308;46.312;25.288;2023-04-05T09:22:14;95740.25;;;7.39;53.08
50394;BME280;36308;46.312;25.288;2023-04-05T09:24:44;95749.97;;;7.45;53.60
50394;BME280;36308;46.312;25.288;2023-04-05T09:27:15;95750.94;;;7.56;53.31
50394;BME280;36308;46.312;25.288;2023-04-05T09:29:43;95744.94;;;7.66;54.02
50394;BME280;36308;46.312;25.288;2023-04-05T09:32:10;95741.56;;;7.76;53.64
50394;BME280;36308;46.312;25.288;2023-04-05T09:34:36;95739.53;;;7.83;53.04
50394;BME280;36308;46.312;25.288;2023-04-05T09:37:17;95739.13;;;7.91;52.57
50394;BME280;36308;46.312;25.288;2023-04-05T09:39:44;95743.53;;;8.02;52.65
50394;BME280;36308;46.312;25.288;2023-04-05T09:42:12;95742.06;;;8.12;53.58
50394;BME280;36308;46.312;25.288;2023-04-05T09:44:59;95747.03;;;8.25;53.54
50394;BME280;36308;46.312;25.288;2023-04-05T09:47:28;95741.78;;;8.35;53.46
50394;BME280;36308;46.312;25.288;2023-04-05T09:50:03;95741.63;;;8.42;52.94
50394;BME280;36308;46.312;25.288;2023-04-05T09:52:31;95745.66;;;8.44;52.88
50394;BME280;36308;46.312;25.288;2023-04-05T09:54:59;95753.22;;;8.47;52.68
50394;BME280;36308;46.312;25.288;2023-04-05T09:57:26;95748.91;;;8.46;52.12
50394;BME280;36308;46.312;25.288;2023-04-05T09:59:52;95748.91;;;8.46;52.29
50394;BME280;36308;46.312;25.288;2023-04-05T10:02:18;95741.41;;;8.48;51.72
50394;BME280;36308;46.312;25.288;2023-04-05T10:04:45;95746.28;;;8.52;52.20
50394;BME280;36308;46.312;25.288;2023-04-05T10:07:12;95733.47;;;8.54;52.84
50394;BME280;36308;46.312;25.288;2023-04-05T10:09:45;95735.63;;;8.57;52.81
50394;BME280;36308;46.312;25.288;2023-04-05T10:12:23;95745.28;;;8.58;51.72
50394;BME280;36308;46.312;25.288;2023-04-05T10:14:49;95751.97;;;8.55;52.19
50394;BME280;36308;46.312;25.288;2023-04-05T10:20:20;95753.00;;;8.32;52.35
50394;BME280;36308;46.312;25.288;2023-04-05T10:25:55;95744.09;;;8.04;53.01
50394;BME280;36308;46.312;25.288;2023-04-05T10:28:41;95750.06;;;7.89;53.18
50394;BME280;36308;46.312;25.288;2023-04-05T10:33:42;95744.22;;;7.54;54.37
50394;BME280;36308;46.312;25.288;2023-04-05T10:39:00;95754.69;;;7.21;55.12
50394;BME280;36308;46.312;25.288;2023-04-05T10:41:32;95763.03;;;7.08;55.54
50394;BME280;36308;46.312;25.288;2023-04-05T10:43:59;95764.47;;;6.99;56.23
50394;BME280;36308;46.312;25.288;2023-04-05T10:46:26;95761.16;;;6.92;56.38
50394;BME280;36308;46.312;25.288;2023-04-05T10:51:24;95761.44;;;6.78;57.10
50394;BME280;36308;46.312;25.288;2023-04-05T10:53:57;95760.22;;;6.69;57.32
50394;BME280;36308;46.312;25.288;2023-04-05T10:56:24;95759.06;;;6.65;57.51
50394;BME280;36308;46.312;25.288;2023-04-05T10:58:52;95766.97;;;6.60;57.54
50394;BME280;36308;46.312;25.288;2023-04-05T11:01:19;95757.72;;;6.51;57.64
50394;BME280;36308;46.312;25.288;2023-04-05T11:03:47;95762.66;;;6.42;57.88
50394;BME280;36308;46.312;25.288;2023-04-05T11:09:19;95761.16;;;6.34;58.92
50394;BME280;36308;46.312;25.288;2023-04-05T11:11:48;95769.66;;;6.31;58.59
50394;BME280;36308;46.312;25.288;2023-04-05T11:14:25;95765.00;;;6.26;58.58
50394;BME280;36308;46.312;25.288;2023-04-05T11:16:55;95764.69;;;6.23;58.73
50394;BME280;36308;46.312;25.288;2023-04-05T11:19:47;95762.69;;;6.18;59.14
50394;BME280;36308;46.312;25.288;2023-04-05T11:22:24;95762.38;;;6.15;59.37
50394;BME280;36308;46.312;25.288;2023-04-05T11:24:51;95768.53;;;6.15;59.63
50394;BME280;36308;46.312;25.288;2023-04-05T11:27:24;95764.47;;;6.13;59.48
50394;BME280;36308;46.312;25.288;2023-04-05T11:29:51;95767.16;;;6.13;59.42
50394;BME280;36308;46.312;25.288;2023-04-05T11:32:20;95766.09;;;6.14;59.66
50394;BME280;36308;46.312;25.288;2023-04-05T11:35:04;95764.56;;;6.18;59.68
50394;BME280;36308;46.312;25.288;2023-04-05T11:40:30;95766.06;;;6.25;59.84
50394;BME280;36308;46.312;25.288;2023-04-05T11:43:07;95763.75;;;6.29;59.72
50394;BME280;36308;46.312;25.288;2023-04-05T11:45:36;95766.50;;;6.34;59.62
50394;BME280;36308;46.312;25.288;2023-04-05T11:48:07;95770.09;;;6.40;60.22
50394;BME280;36308;46.312;25.288;2023-04-05T11:50:33;95767.75;;;6.43;60.28
50394;BME280;36308;46.312;25.288;2023-04-05T11:53:15;95766.22;;;6.47;59.77
50394;BME280;36308;46.312;25.288;2023-04-05T11:55:43;95771.88;;;6.51;59.54
50394;BME280;36308;46.312;25.288;2023-04-05T12:00:42;95758.78;;;6.50;58.89
50394;BME280;36308;46.312;25.288;2023-04-05T12:03:15;95764.59;;;6.46;59.21
50394;BME280;36308;46.312;25.288;2023-04-05T12:05:53;95763.00;;;6.45;59.42
50394;BME280;36308;46.312;25.288;2023-04-05T12:08:24;95762.41;;;6.43;59.72
50394;BME280;36308;46.312;25.288;2023-04-05T12:11:01;95765.66;;;6.45;59.73
50394;BME280;36308;46.312;25.288;2023-04-05T12:13:28;95763.00;;;6.45;59.89
50394;BME280;36308;46.312;25.288;2023-04-05T12:15:56;95759.75;;;6.43;59.72
50394;BME280;36308;46.312;25.288;2023-04-05T12:18:24;95758.09;;;6.42;59.74
50394;BME280;36308;46.312;25.288;2023-04-05T12:20:50;95759.75;;;6.43;59.49
50394;BME280;36308;46.312;25.288;2023-04-05T12:23:16;95759.75;;;6.43;59.71
50394;BME280;36308;46.312;25.288;2023-04-05T12:25:48;95755.22;;;6.44;59.81
50394;BME280;36308;46.312;25.288;2023-04-05T12:28:14;95756.00;;;6.44;59.69
50394;BME280;36308;46.312;25.288;2023-04-05T12:31:09;95766.22;;;6.47;59.83
50394;BME280;36308;46.312;25.288;2023-04-05T12:33:39;95762.50;;;6.48;59.63
50394;BME280;36308;46.312;25.288;2023-04-05T12:36:06;95765.75;;;6.51;59.66
50394;BME280;36308;46.312;25.288;2023-04-05T12:38:32;95767.94;;;6.54;59.72
50394;BME280;36308;46.312;25.288;2023-04-05T12:41:02;95769.31;;;6.56;59.58
50394;BME280;36308;46.312;25.288;2023-04-05T12:43:41;95773.38;;;6.59;59.55
50394;BME280;36308;46.312;25.288;2023-04-05T12:46:39;95765.94;;;6.61;59.38
50394;BME280;36308;46.312;25.288;2023-04-05T12:49:05;95764.41;;;6.65;59.40
50394;BME280;36308;46.312;25.288;2023-04-05T12:51:31;95767.06;;;6.65;59.46
50394;BME280;36308;46.312;25.288;2023-04-05T12:53:59;95759.63;;;6.67;59.49
50394;BME280;36308;46.312;25.288;2023-04-05T12:56:27;95764.19;;;6.66;59.35
50394;BME280;36308;46.312;25.288;2023-04-05T12:58:53;95763.13;;;6.67;59.58
50394;BME280;36308;46.312;25.288;2023-04-05T13:01:19;95770.91;;;6.69;59.21
50394;BME280;36308;46.312;25.288;2023-04-05T13:03:46;95767.72;;;6.72;59.46
50394;BME280;36308;46.312;25.288;2023-04-05T13:06:11;95763.44;;;6.71;59.30
50394;BME280;36308;46.312;25.288;2023-04-05T13:08:37;95765.88;;;6.73;59.43
50394;BME280;36308;46.312;25.288;2023-04-05T13:11:03;95765.63;;;6.74;59.43
50394;BME280;36308;46.312;25.288;2023-04-05T13:13:29;95751.47;;;6.74;59.25
50394;BME280;36308;46.312;25.288;2023-04-05T13:15:55;95751.22;;;6.75;58.93
50394;BME280;36308;46.312;25.288;2023-04-05T13:18:20;95748.00;;;6.73;59.26
50394;BME280;36308;46.312;25.288;2023-04-05T13:20:46;95748.47;;;6.70;59.06
50394;BME280;36308;46.312;25.288;2023-04-05T13:23:12;95751.69;;;6.72;59.17
50394;BME280;36308;46.312;25.288;2023-04-05T13:25:41;95757.63;;;6.74;59.38
50394;BME280;36308;46.312;25.288;2023-04-05T13:28:07;95749.59;;;6.74;59.60
50394;BME280;36308;46.312;25.288;2023-04-05T13:30:33;95756.56;;;6.75;59.28
50394;BME280;36308;46.312;25.288;2023-04-05T13:32:59;95729.69;;;6.65;59.16
50394;BME280;36308;46.312;25.288;2023-04-05T13:35:24;95758.44;;;6.75;58.88